航空気象通報

ウインドサーファーのための航空気象通報による風予報です。

8/31-9/1の航空気象通報(国内、海外)

2013年08月31日 23時31分10秒 | TAF

羽田空港
TAF RJTT 310843Z 3109/0112 20020KT 9999 FEW020
TEMPO 3109/3118 20022G32KT
日本時間31日18時-1日21時:200度から20ノットの風
但し、31日18時-1日03時の間:ときどき200度から22ノット、突風33ノット

静岡空港
TAF RJNS 310845Z 3109/0112 23015KT 9999 FEW015 BKN030
TEMPO 3109/3112 23015G28KT
TEMPO 3112/3118 FEW005 BKN008
TEMPO 0103/0106 24015G25KT
日本時間31日18時-1日21時:230度から15ノットの風
但し、31日18-21時の間:230度から15ノット、突風28ノット
但し、1日12-15時の間:240度から15ノット、突風25ノット

福岡空港
TAF RJFF 310843Z 3109/0112 14005KT 9999 -RA FEW010 BKN030
BECMG 0100/0103 03005KT
TEMPO 0103/0109 3000 SHRA BR FEW007 BKN009 BKN015
日本時間31日18時-1日09時:140度から5ノットの風
09-12時:風が変化
12-21時:030度から5ノットの風

那覇空港
TAF AMD ROAH 311141Z 3111/0112 19015KT 9999 FEW015
日本時間31日20時-1日21時:190度から15ノットの風

マウイのカフルイ空港
PHOG 311129Z 3112/0112 06009KT P6SM FEW050
FM311900 05015G25KT P6SM FEW050
FM312100 05019G29KT P6SM FEW035 SCT050
FM010600 05011KT P6SM FEW035 SCT050 AMD LTD TO WX VIS AND WIND TIL 311600
ハワイ時間31日02-09時:060度から9ノットの風
09-11時:050度から15ノット、突風25ノット
11-20時:050度から19ノット、突風29ノット
20時-1日02時:050度から11ノットの風

コメント
この記事をはてなブックマークに追加

8/30-8/31の航空気象通報

2013年08月30日 22時53分37秒 | TAF
羽田空港
TAF AMD RJTT 301249Z 3012/3112 23006KT 9999 FEW030
BECMG 3100/3103 20018KT
BECMG 3103/3106 20024G34KT
日本時間30日21時-31日09時:230度から6ノットの風
09-12時:風が変化
12時:200度から18ノットの風
12-15時:風が変化
15-21時:200度から24ノット、突風34ノット


静岡空港
TAF RJNS 300841Z 3009/3112 24006KT 9999 FEW020
BECMG 3021/3024 24016KT
TEMPO 3100/3106 24018G28KT
日本時間30日18時-31日06時:240度から6ノットの風
06-09時:風が変化
09-21時:240度から16ノットの風
但し、09-15時の間:どきどき240度から18ノット、突風28ノット


福岡空港
TAF RJFF 300844Z 3009/3112 16012KT 9000 -SHRA FEW007 SCT015 BKN025
TEMPO 3009/3014 1500 +TSRA BR FEW007 SCT010 BKN020 FEW020CB
TEMPO 3021/3103 17018G28KT 2000 SHRA BR
BECMG 3103/3106 30015KT
TEMPO 3103/3106 30018G28KT 2000 SHRA BR FEW005 BKN007 BKN020
BECMG 3109/3112 18005KT
日本時間30日18時-31日12時:160度から12ノットの風
但し、31日06-12時の間:どきどき170度から18ノット、突風28ノット
12-15時:風が変化
但し、12-15時の間:どきどき300度から18ノット、突風28ノット
15-18時:300度から15ノットの風
18-21時:風が変化
21時:180度から5ノットの風

但し、30日18-23時の間:どきどき

那覇空港
TAF ROAH 300840Z 3009/3112 19018KT 9999 FEW015 BKN025
TEMPO 3100/3106 20024G34KT
TEMPO 3109/3112 4000 SHRA FEW010 BKN020 FEW025CB
日本時間30日18時-31日21時:190度から18ノットの風
但し、31日09-15時の間:どきどき200度から24ノット、突風34ノット

但し、31日18-21時の間:どきどき

マウイのカフルイ空港
PHOG 301120Z 3012/3112 VRB05KT P6SM FEW035
FM302000 05015G22KT P6SM FEW035 SCT050
FM310700 06008KT P6SM FEW040 AMD LTD TO WX VIS AND WIND TIL 301600
ハワイ時間30日02-10時:風向不定5ノットの風
10-21時:050度から15ノット、突風22ノット
21時-31日02時:060度から8ノットの風


サイパン空港
PGSN 301120Z 3012/3112 VRB05KT P6SM VCSH SCT021
マリアナ時間30日22時-31日22時:風向不定5ノットの風
コメント
この記事をはてなブックマークに追加

8/29-8/30の航空気象通報

2013年08月29日 22時32分16秒 | TAF
羽田空港
TAF RJTT 290839Z 2909/3012 20018KT 9999 FEW030
TEMPO 2909/2915 20020G30KT
TEMPO 2921/2924 20018G28KT
BECMG 3000/3003 20020G30KT
日本時間29日18-30日09時:200度から18ノットの風
但し、29日18-24時の間:どきどき200度から20ノット、突風30ノット
但し、30日06-09時の間:どきどき200度から18ノット、突風28ノット
30日09-12時:風が変化
12-21時:200度から20ノット、突風30ノット


静岡空港
TAF RJNS 290839Z 2909/3012 24008KT 9999 FEW010 BKN030
TEMPO 2918/2921 FEW005 BKN008
TEMPO 3003/3009 24017G29KT
日本時間29日18時-30日21時:240度から8ノットの風
但し、30日12-18時の間:どきどき240度から17ノット、突風29ノット


福岡空港
TAF RJFF 290843Z 2909/3012 18014KT 9999 -SHRA FEW020 BKN040
TEMPO 2910/2913 SHRA
TEMPO 3006/3012 SHRA
日本時間29日18時-30日21時:180度から14ノットの風


那覇空港
TAF ROAH 290839Z 2909/3012 17017KT 9999 FEW015
日本時間29日18時-30日21時:170度から17ノットの風


マウイのカフルイ空港
PHOG 291139Z 2912/3012 05007KT P6SM SCT030 BKN050
FM292000 03012KT P6SM FEW040 SCT060
FM300700 05007KT P6SM FEW030 SCT050 AMD LTD TO WX VIS AND WIND TIL 291600
ハワイ時間29日02-10時:050度から7ノットの風

10-21時:030度から12ノットの風
21時-30日02時:050度から7ノットの風


サイパン空港
PGSN 291120Z 2912/3012 VRB05KT P6SM VCSH FEW020 SCT060
マリアナ時間29日22時-30日22時:風向不定5ノットの風
コメント
この記事をはてなブックマークに追加

8/28-8/29の航空気象通報

2013年08月28日 22時20分49秒 | TAF
羽田空港
TAF RJTT 280841Z 2809/2912 18012KT 9999 FEW030
BECMG 2818/2821 12006KT
BECMG 2900/2903 18015KT
TEMPO 2906/2912 20018G28KT
日本時間28日18時-29日03時:180度から12ノットの風
03-06時:風が変化
06-09時:120度から6ノットの風
09-12時:風が変化
12-21時:180度から15ノットの風
但し、15-21時の間:どきどき200度から18ノット、突風28ノット


静岡空港
TAF RJNS 280839Z 2809/2912 25004KT 9999 FEW030
BECMG 2900/2903 24015KT
日本時間28日18時-29日09時:250度から4ノットの風
09-12時:風が変化
12-21時:240度から15ノットの風


福岡空港
TAF RJFF 280841Z 2809/2912 33008KT 9999 FEW030
BECMG 2811/2813 15008KT
日本時間28日18-20時:330度から8ノットの風
20-22時:風が変化
22時-29日21時:150度から8ノットの風


那覇空港
TAF ROAH 280837Z 2809/2912 16014KT 9999 FEW015 SCT025
日本時間28日18時-29日21時:160度から14ノットの風


マウイのカフルイ空港
PHOG 281131Z 2812/2912 04010KT P6SM FEW050
FM282000 02015G25KT P6SM FEW035 SCT050
FM290700 04010KT P6SM SCT035 BKN050 AMD LTD TO WX VIS AND WIND TIL 281600
ハワイ時間28日02-10時:040度から10ノットの風
10-21時:020度から15ノット、突風25ノット

21時-29日02時:040度から10ノットの風


サイパン空港
PGSN 281123Z 2812/2912 VRB05KT P6SM VCSH FEW020CB SCT060
マリアナ時間28日22時-29日22時:風向不定5ノットの風
コメント
この記事をはてなブックマークに追加

8/27-8/28の航空気象通報

2013年08月27日 22時18分31秒 | TAF
羽田空港
TAF RJTT 270839Z 2709/2812 21012KT 9999 FEW030
BECMG 2714/2716 34008KT
BECMG 2800/2803 09006KT
BECMG 2806/2809 18012KT
日本時間27日18-23時:210度から12ノットの風
23時-28日01時:風が変化
01-09時:340度から8ノットの風
09-12時:風が変化
12-15時:090度から6ノットの風
15-18時:風が変化
18-21時:180度から12ノットの風


静岡空港
TAF RJNS 270842Z 2709/2812 18006KT 9999 FEW030
BECMG 2709/2711 28006KT
BECMG 2800/2803 18010KT
BECMG 2809/2812 25006KT
日本時間27日18時:180度から6ノットの風
18-20時:風が変化
20時-28日09時:280度から6ノットの風
09-12時:風が変化
12-18時:180度から10ノットの風
18-21時:風が変化
21時:250度から6ノットの風


福岡空港
TAF RJFF 270838Z 2709/2812 30006KT 9999 FEW030
BECMG 2713/2715 16005KT
BECMG 2800/2803 34008KT
BECMG 2809/2812 16008KT
日本時間27日18-22時:300度から6ノットの風
22-24時:風が変化
28日00-09時:160度から5ノットの風
09-12時:風が変化
12-18時:340度から8ノットの風
18-21時:風が変化
21時:160度から8ノットの風


那覇空港
TAF ROAH 270836Z 2709/2812 16008KT 9999 FEW015
日本時間27日18時-28日21時:160度から8ノットの風


マウイのカフルイ空港
PHOG 271125Z 2712/2812 04015G25KT P6SM FEW050
FM272000 04020G29KT P6SM FEW035 SCT050
FM280600 04012KT P6SM FEW035 SCT050 AMD LTD TO WX VIS AND WIND TIL 271600
ハワイ時間27日02-10時:040度から15ノット、突風25ノット
10-20時:040度から20ノット、突風29ノット
20時-28日02時:040度から12ノットの風


サイパン空港
PGSN 271120Z 2712/2812 VRB04KT P6SM VCSH FEW020 SCT060
マリアナ時間27日22時-28日22時:風向不定4ノットの風
コメント
この記事をはてなブックマークに追加